sensor_id;sensor_type;location;lat;lon;timestamp;pressure;altitude;pressure_sealevel;temperature;humidity
56330;BME280;42236;48.058;10.632;2023-02-10T00:00:15;96335.56;;;-4.74;83.08
56330;BME280;42236;48.058;10.632;2023-02-10T00:03:01;96336.78;;;-4.77;82.98
56330;BME280;42236;48.058;10.632;2023-02-10T00:05:47;96339.81;;;-4.80;82.85
56330;BME280;42236;48.058;10.632;2023-02-10T00:08:33;96340.41;;;-4.84;82.49
56330;BME280;42236;48.058;10.632;2023-02-10T00:11:19;96340.84;;;-4.87;82.47
56330;BME280;42236;48.058;10.632;2023-02-10T00:14:05;96346.47;;;-4.90;82.53
56330;BME280;42236;48.058;10.632;2023-02-10T00:16:52;96355.59;;;-4.93;82.43
56330;BME280;42236;48.058;10.632;2023-02-10T00:19:37;96357.81;;;-4.97;82.36
56330;BME280;42236;48.058;10.632;2023-02-10T00:22:23;96356.81;;;-5.02;82.63
56330;BME280;42236;48.058;10.632;2023-02-10T00:25:09;96366.28;;;-5.08;83.08
56330;BME280;42236;48.058;10.632;2023-02-10T00:27:54;96363.25;;;-5.11;83.05
56330;BME280;42236;48.058;10.632;2023-02-10T00:30:40;96369.72;;;-5.14;83.07
56330;BME280;42236;48.058;10.632;2023-02-10T00:33:26;96363.84;;;-5.16;83.28
56330;BME280;42236;48.058;10.632;2023-02-10T00:36:13;96370.31;;;-5.19;83.47
56330;BME280;42236;48.058;10.632;2023-02-10T00:38:59;96372.34;;;-5.21;83.47
56330;BME280;42236;48.058;10.632;2023-02-10T00:41:45;96369.88;;;-5.22;83.71
56330;BME280;42236;48.058;10.632;2023-02-10T00:44:30;96371.09;;;-5.25;83.70
56330;BME280;42236;48.058;10.632;2023-02-10T00:47:16;96380.19;;;-5.27;84.54
56330;BME280;42236;48.058;10.632;2023-02-10T00:50:02;96372.28;;;-5.34;84.50
56330;BME280;42236;48.058;10.632;2023-02-10T00:52:48;96374.31;;;-5.36;85.32
56330;BME280;42236;48.058;10.632;2023-02-10T00:55:34;96371.88;;;-5.38;85.17
56330;BME280;42236;48.058;10.632;2023-02-10T00:58:20;96370.84;;;-5.37;84.00
56330;BME280;42236;48.058;10.632;2023-02-10T01:01:06;96375.94;;;-5.35;84.14
56330;BME280;42236;48.058;10.632;2023-02-10T01:03:52;96378.56;;;-5.35;83.56
56330;BME280;42236;48.058;10.632;2023-02-10T01:06:38;96373.13;;;-5.33;83.64
56330;BME280;42236;48.058;10.632;2023-02-10T01:09:24;96373.31;;;-5.35;83.28
56330;BME280;42236;48.058;10.632;2023-02-10T01:12:09;96378.97;;;-5.38;83.11
56330;BME280;42236;48.058;10.632;2023-02-10T01:14:55;96395.53;;;-5.38;83.28
56330;BME280;42236;48.058;10.632;2023-02-10T01:17:40;96379.59;;;-5.36;83.38
56330;BME280;42236;48.058;10.632;2023-02-10T01:20:27;96392.09;;;-5.38;83.20
56330;BME280;42236;48.058;10.632;2023-02-10T01:23:12;96401.00;;;-5.39;82.91
56330;BME280;42236;48.058;10.632;2023-02-10T01:26:01;96398.56;;;-5.41;82.73
56330;BME280;42236;48.058;10.632;2023-02-10T01:28:47;96390.25;;;-5.44;82.83
56330;BME280;42236;48.058;10.632;2023-02-10T01:31:33;96402.19;;;-5.48;83.21
56330;BME280;42236;48.058;10.632;2023-02-10T01:34:19;96396.31;;;-5.50;83.20
56330;BME280;42236;48.058;10.632;2023-02-10T01:37:04;96400.94;;;-5.52;83.12
56330;BME280;42236;48.058;10.632;2023-02-10T01:39:50;96407.19;;;-5.53;83.53
56330;BME280;42236;48.058;10.632;2023-02-10T01:42:35;96397.31;;;-5.51;83.48
56330;BME280;42236;48.058;10.632;2023-02-10T01:48:13;96404.56;;;-5.53;83.26
56330;BME280;42236;48.058;10.632;2023-02-10T01:51:04;96402.97;;;-5.54;83.07
56330;BME280;42236;48.058;10.632;2023-02-10T01:53:52;96410.84;;;-5.54;83.34
56330;BME280;42236;48.058;10.632;2023-02-10T01:56:38;96410.22;;;-5.57;83.41
56330;BME280;42236;48.058;10.632;2023-02-10T01:59:27;96411.88;;;-5.55;83.31
56330;BME280;42236;48.058;10.632;2023-02-10T02:02:16;96410.22;;;-5.57;83.50
56330;BME280;42236;48.058;10.632;2023-02-10T02:05:05;96410.22;;;-5.57;83.40
56330;BME280;42236;48.058;10.632;2023-02-10T02:07:51;96415.69;;;-5.58;83.56
56330;BME280;42236;48.058;10.632;2023-02-10T02:10:51;96419.13;;;-5.58;83.48
56330;BME280;42236;48.058;10.632;2023-02-10T02:14:08;96408.63;;;-5.58;83.67
56330;BME280;42236;48.058;10.632;2023-02-10T02:17:05;96429.81;;;-5.59;83.39
56330;BME280;42236;48.058;10.632;2023-02-10T02:20:16;96423.16;;;-5.62;83.80
56330;BME280;42236;48.058;10.632;2023-02-10T02:29:49;96427.94;;;-5.72;85.10
56330;BME280;42236;48.058;10.632;2023-02-10T02:32:49;96418.63;;;-5.74;85.35
56330;BME280;42236;48.058;10.632;2023-02-10T02:35:48;96414.56;;;-5.77;85.76
56330;BME280;42236;48.058;10.632;2023-02-10T02:38:41;96413.72;;;-5.84;85.83
56330;BME280;42236;48.058;10.632;2023-02-10T02:41:28;96410.03;;;-5.90;85.15
56330;BME280;42236;48.058;10.632;2023-02-10T02:44:13;96419.94;;;-5.92;85.43
56330;BME280;42236;48.058;10.632;2023-02-10T02:47:07;96424.19;;;-5.91;85.09
56330;BME280;42236;48.058;10.632;2023-02-10T02:58:53;96421.38;;;-5.89;83.94
56330;BME280;42236;48.058;10.632;2023-02-10T03:01:51;96425.22;;;-5.92;84.84
56330;BME280;42236;48.058;10.632;2023-02-10T03:04:40;96423.78;;;-5.94;83.96
56330;BME280;42236;48.058;10.632;2023-02-10T03:07:26;96417.72;;;-5.95;83.94
56330;BME280;42236;48.058;10.632;2023-02-10T03:10:12;96426.63;;;-5.96;84.53
56330;BME280;42236;48.058;10.632;2023-02-10T03:12:58;96411.66;;;-5.95;84.40
56330;BME280;42236;48.058;10.632;2023-02-10T03:15:43;96413.66;;;-5.97;84.57
56330;BME280;42236;48.058;10.632;2023-02-10T03:18:29;96416.91;;;-5.95;84.24
56330;BME280;42236;48.058;10.632;2023-02-10T03:21:15;96420.34;;;-5.95;84.35
56330;BME280;42236;48.058;10.632;2023-02-10T03:24:01;96419.53;;;-5.95;84.28
56330;BME280;42236;48.058;10.632;2023-02-10T03:26:47;96422.34;;;-5.97;84.00
56330;BME280;42236;48.058;10.632;2023-02-10T03:29:32;96418.91;;;-5.97;84.53
56330;BME280;42236;48.058;10.632;2023-02-10T03:32:19;96424.56;;;-6.01;85.09
56330;BME280;42236;48.058;10.632;2023-02-10T03:35:05;96424.94;;;-6.04;84.55
56330;BME280;42236;48.058;10.632;2023-02-10T03:37:51;96414.44;;;-6.04;84.43
56330;BME280;42236;48.058;10.632;2023-02-10T03:40:36;96422.94;;;-6.02;84.15
56330;BME280;42236;48.058;10.632;2023-02-10T03:43:22;96412.22;;;-6.00;84.10
56330;BME280;42236;48.058;10.632;2023-02-10T03:46:09;96408.75;;;-6.07;84.53
56330;BME280;42236;48.058;10.632;2023-02-10T03:48:55;96424.09;;;-6.11;84.58
56330;BME280;42236;48.058;10.632;2023-02-10T03:51:41;96426.47;;;-6.16;84.90
56330;BME280;42236;48.058;10.632;2023-02-10T03:54:26;96429.69;;;-6.20;85.17
56330;BME280;42236;48.058;10.632;2023-02-10T03:57:13;96430.88;;;-6.23;84.93
56330;BME280;42236;48.058;10.632;2023-02-10T03:59:58;96436.47;;;-6.26;85.29
56330;BME280;42236;48.058;10.632;2023-02-10T04:02:44;96435.50;;;-6.25;85.27
56330;BME280;42236;48.058;10.632;2023-02-10T04:05:30;96437.09;;;-6.24;84.41
56330;BME280;42236;48.058;10.632;2023-02-10T04:08:16;96441.56;;;-6.25;84.19
56330;BME280;42236;48.058;10.632;2023-02-10T04:11:03;96443.38;;;-6.25;84.22
56330;BME280;42236;48.058;10.632;2023-02-10T04:13:48;96442.56;;;-6.26;84.33
56330;BME280;42236;48.058;10.632;2023-02-10T04:16:34;96453.25;;;-6.27;84.09
56330;BME280;42236;48.058;10.632;2023-02-10T04:19:20;96452.63;;;-6.29;84.52
56330;BME280;42236;48.058;10.632;2023-02-10T04:22:06;96447.38;;;-6.29;83.89
56330;BME280;42236;48.058;10.632;2023-02-10T04:24:51;96447.38;;;-6.29;84.01
56330;BME280;42236;48.058;10.632;2023-02-10T04:27:37;96449.38;;;-6.31;84.82
56330;BME280;42236;48.058;10.632;2023-02-10T04:30:23;96447.31;;;-6.36;84.64
56330;BME280;42236;48.058;10.632;2023-02-10T04:33:08;96439.19;;;-6.41;84.71
56330;BME280;42236;48.058;10.632;2023-02-10T04:35:55;96442.03;;;-6.42;84.31
56330;BME280;42236;48.058;10.632;2023-02-10T04:38:41;96445.22;;;-6.47;84.75
56330;BME280;42236;48.058;10.632;2023-02-10T04:41:26;96444.97;;;-6.52;84.57
56330;BME280;42236;48.058;10.632;2023-02-10T04:44:12;96439.91;;;-6.54;84.63
56330;BME280;42236;48.058;10.632;2023-02-10T04:46:58;96440.88;;;-6.55;84.79
56330;BME280;42236;48.058;10.632;2023-02-10T04:49:46;96441.91;;;-6.56;85.13
56330;BME280;42236;48.058;10.632;2023-02-10T04:52:32;96441.47;;;-6.59;84.79
56330;BME280;42236;48.058;10.632;2023-02-10T04:55:18;96447.88;;;-6.62;84.81
56330;BME280;42236;48.058;10.632;2023-02-10T04:58:04;96449.91;;;-6.64;84.97
56330;BME280;42236;48.058;10.632;2023-02-10T05:00:49;96450.25;;;-6.67;84.63
56330;BME280;42236;48.058;10.632;2023-02-10T05:03:35;96451.91;;;-6.66;84.88
56330;BME280;42236;48.058;10.632;2023-02-10T05:06:21;96456.34;;;-6.67;84.62
56330;BME280;42236;48.058;10.632;2023-02-10T05:09:06;96457.16;;;-6.66;84.92
56330;BME280;42236;48.058;10.632;2023-02-10T05:11:52;96453.91;;;-6.68;85.02
56330;BME280;42236;48.058;10.632;2023-02-10T05:14:38;96458.97;;;-6.67;85.21
56330;BME280;42236;48.058;10.632;2023-02-10T05:17:23;96451.91;;;-6.66;85.14
56330;BME280;42236;48.058;10.632;2023-02-10T05:20:09;96450.25;;;-6.67;85.50
56330;BME280;42236;48.058;10.632;2023-02-10T05:22:55;96456.69;;;-6.70;85.37
56330;BME280;42236;48.058;10.632;2023-02-10T05:25:41;96457.88;;;-6.72;85.64
56330;BME280;42236;48.058;10.632;2023-02-10T05:28:26;96461.13;;;-6.70;85.46
56330;BME280;42236;48.058;10.632;2023-02-10T05:31:13;96458.50;;;-6.70;85.79
56330;BME280;42236;48.058;10.632;2023-02-10T05:33:58;96472.25;;;-6.68;85.04
56330;BME280;42236;48.058;10.632;2023-02-10T05:36:44;96468.28;;;-6.64;84.10
56330;BME280;42236;48.058;10.632;2023-02-10T05:39:30;96478.78;;;-6.64;83.74
56330;BME280;42236;48.058;10.632;2023-02-10T05:42:15;96475.53;;;-6.66;84.13
56330;BME280;42236;48.058;10.632;2023-02-10T05:45:01;96479.13;;;-6.67;84.23
56330;BME280;42236;48.058;10.632;2023-02-10T05:47:47;96488.00;;;-6.68;84.25
56330;BME280;42236;48.058;10.632;2023-02-10T05:50:32;96490.63;;;-6.68;84.38
56330;BME280;42236;48.058;10.632;2023-02-10T05:53:18;96483.13;;;-6.71;84.60
56330;BME280;42236;48.058;10.632;2023-02-10T05:56:04;96497.06;;;-6.71;84.56
56330;BME280;42236;48.058;10.632;2023-02-10T05:58:50;96497.88;;;-6.70;84.18
56330;BME280;42236;48.058;10.632;2023-02-10T06:01:35;96496.25;;;-6.71;84.55
56330;BME280;42236;48.058;10.632;2023-02-10T06:04:21;96497.06;;;-6.71;84.47
56330;BME280;42236;48.058;10.632;2023-02-10T06:07:07;96498.06;;;-6.72;84.44
56330;BME280;42236;48.058;10.632;2023-02-10T06:09:52;96499.88;;;-6.72;84.07
56330;BME280;42236;48.058;10.632;2023-02-10T06:12:38;96495.44;;;-6.72;84.71
56330;BME280;42236;48.058;10.632;2023-02-10T06:15:24;96490.38;;;-6.73;85.26
56330;BME280;42236;48.058;10.632;2023-02-10T06:18:09;96498.25;;;-6.73;84.98
56330;BME280;42236;48.058;10.632;2023-02-10T06:20:55;96504.31;;;-6.73;85.17
56330;BME280;42236;48.058;10.632;2023-02-10T06:23:41;96507.09;;;-6.74;85.25
56330;BME280;42236;48.058;10.632;2023-02-10T06:26:27;96510.09;;;-6.77;85.34
56330;BME280;42236;48.058;10.632;2023-02-10T06:29:13;96515.56;;;-6.79;85.52
56330;BME280;42236;48.058;10.632;2023-02-10T06:31:58;96516.72;;;-6.81;85.76
56330;BME280;42236;48.058;10.632;2023-02-10T06:34:44;96521.16;;;-6.82;85.98
56330;BME280;42236;48.058;10.632;2023-02-10T06:37:30;96526.22;;;-6.80;86.30
56330;BME280;42236;48.058;10.632;2023-02-10T06:40:16;96530.47;;;-6.79;86.03
56330;BME280;42236;48.058;10.632;2023-02-10T06:43:02;96527.66;;;-6.78;86.19
56330;BME280;42236;48.058;10.632;2023-02-10T06:45:48;96535.97;;;-6.74;86.29
56330;BME280;42236;48.058;10.632;2023-02-10T06:48:33;96533.97;;;-6.72;86.07
56330;BME280;42236;48.058;10.632;2023-02-10T06:51:19;96541.69;;;-6.71;86.11
56330;BME280;42236;48.058;10.632;2023-02-10T06:54:05;96541.13;;;-6.66;85.96
56330;BME280;42236;48.058;10.632;2023-02-10T06:56:50;96550.88;;;-6.60;85.11
56330;BME280;42236;48.058;10.632;2023-02-10T06:59:36;96552.94;;;-6.55;85.01
56330;BME280;42236;48.058;10.632;2023-02-10T07:02:22;96556.66;;;-6.50;85.09
56330;BME280;42236;48.058;10.632;2023-02-10T07:05:09;96553.44;;;-6.45;85.69
56330;BME280;42236;48.058;10.632;2023-02-10T07:07:55;96549.66;;;-6.42;85.72
56330;BME280;42236;48.058;10.632;2023-02-10T07:10:44;96550.72;;;-6.37;85.12
56330;BME280;42236;48.058;10.632;2023-02-10T07:13:29;96552.97;;;-6.34;85.82
56330;BME280;42236;48.058;10.632;2023-02-10T07:16:15;96562.28;;;-6.31;86.24
56330;BME280;42236;48.058;10.632;2023-02-10T07:19:02;96557.50;;;-6.28;86.57
56330;BME280;42236;48.058;10.632;2023-02-10T07:21:48;96557.91;;;-6.24;86.33
56330;BME280;42236;48.058;10.632;2023-02-10T07:24:35;96563.41;;;-6.19;86.90
56330;BME280;42236;48.058;10.632;2023-02-10T07:27:21;96559.03;;;-6.12;86.74
56330;BME280;42236;48.058;10.632;2023-02-10T07:30:08;96558.94;;;-6.04;86.62
56330;BME280;42236;48.058;10.632;2023-02-10T07:32:53;96565.66;;;-5.94;86.82
56330;BME280;42236;48.058;10.632;2023-02-10T07:35:39;96568.13;;;-5.86;86.10
56330;BME280;42236;48.058;10.632;2023-02-10T07:38:25;96571.63;;;-5.79;87.10
56330;BME280;42236;48.058;10.632;2023-02-10T07:41:11;96578.41;;;-5.70;86.97
56330;BME280;42236;48.058;10.632;2023-02-10T07:43:57;96584.13;;;-5.60;86.84
56330;BME280;42236;48.058;10.632;2023-02-10T07:46:43;96587.63;;;-5.52;86.83
56330;BME280;42236;48.058;10.632;2023-02-10T07:49:28;96592.72;;;-5.44;86.48
56330;BME280;42236;48.058;10.632;2023-02-10T07:52:14;96588.34;;;-5.37;86.97
56330;BME280;42236;48.058;10.632;2023-02-10T07:55:00;96596.09;;;-5.29;87.42
56330;BME280;42236;48.058;10.632;2023-02-10T07:57:48;96601.81;;;-5.19;87.19
56330;BME280;42236;48.058;10.632;2023-02-10T08:00:34;96603.91;;;-5.07;87.26
56330;BME280;42236;48.058;10.632;2023-02-10T08:03:19;96597.47;;;-4.98;88.10
56330;BME280;42236;48.058;10.632;2023-02-10T08:06:05;96600.38;;;-4.86;88.18
56330;BME280;42236;48.058;10.632;2023-02-10T08:08:51;96602.25;;;-4.74;88.55
56330;BME280;42236;48.058;10.632;2023-02-10T08:11:37;96612.25;;;-4.62;87.74
56330;BME280;42236;48.058;10.632;2023-02-10T08:14:23;96607.41;;;-4.52;87.87
56330;BME280;42236;48.058;10.632;2023-02-10T08:17:09;96607.50;;;-4.39;87.79
56330;BME280;42236;48.058;10.632;2023-02-10T08:19:55;96604.06;;;-4.26;88.00
56330;BME280;42236;48.058;10.632;2023-02-10T08:22:40;96609.59;;;-4.14;87.11
56330;BME280;42236;48.058;10.632;2023-02-10T08:25:26;96606.38;;;-4.03;87.28
56330;BME280;42236;48.058;10.632;2023-02-10T08:28:12;96605.19;;;-3.94;88.04
56330;BME280;42236;48.058;10.632;2023-02-10T08:31:01;96613.72;;;-3.78;88.56
56330;BME280;42236;48.058;10.632;2023-02-10T08:33:48;96605.00;;;-3.66;88.62
56330;BME280;42236;48.058;10.632;2023-02-10T08:36:33;96599.94;;;-3.54;88.36
56330;BME280;42236;48.058;10.632;2023-02-10T08:39:19;96612.94;;;-3.39;88.29
56330;BME280;42236;48.058;10.632;2023-02-10T08:42:05;96601.78;;;-3.28;88.01
56330;BME280;42236;48.058;10.632;2023-02-10T08:44:51;96599.31;;;-3.16;88.10
56330;BME280;42236;48.058;10.632;2023-02-10T08:47:37;96600.09;;;-3.02;87.63
56330;BME280;42236;48.058;10.632;2023-02-10T08:50:23;96594.00;;;-2.89;88.00
56330;BME280;42236;48.058;10.632;2023-02-10T08:53:08;96595.78;;;-2.76;87.95
56330;BME280;42236;48.058;10.632;2023-02-10T08:56:22;96590.25;;;-2.62;87.69
56330;BME280;42236;48.058;10.632;2023-02-10T08:59:07;96589.41;;;-2.49;87.20
56330;BME280;42236;48.058;10.632;2023-02-10T09:01:53;96591.97;;;-2.36;87.01
56330;BME280;42236;48.058;10.632;2023-02-10T09:04:40;96589.06;;;-2.21;87.05
56330;BME280;42236;48.058;10.632;2023-02-10T09:07:26;96595.09;;;-2.07;86.47
56330;BME280;42236;48.058;10.632;2023-02-10T09:10:13;96586.28;;;-1.94;86.08
56330;BME280;42236;48.058;10.632;2023-02-10T09:12:58;96591.06;;;-1.78;85.99
56330;BME280;42236;48.058;10.632;2023-02-10T09:15:44;96598.53;;;-1.68;85.59
56330;BME280;42236;48.058;10.632;2023-02-10T09:18:30;96598.03;;;-1.58;84.86
56330;BME280;42236;48.058;10.632;2023-02-10T09:21:16;96600.81;;;-1.46;84.26
56330;BME280;42236;48.058;10.632;2023-02-10T09:24:02;96596.03;;;-1.38;85.13
56330;BME280;42236;48.058;10.632;2023-02-10T09:26:47;96599.19;;;-1.22;85.18
56330;BME280;42236;48.058;10.632;2023-02-10T09:29:33;96607.25;;;-1.11;84.62
56330;BME280;42236;48.058;10.632;2023-02-10T09:32:19;96606.16;;;-1.03;84.29
56330;BME280;42236;48.058;10.632;2023-02-10T09:35:05;96606.91;;;-0.96;84.05
56330;BME280;42236;48.058;10.632;2023-02-10T09:37:50;96619.44;;;-0.84;83.47
56330;BME280;42236;48.058;10.632;2023-02-10T09:41:09;96607.50;;;-0.75;82.90
56330;BME280;42236;48.058;10.632;2023-02-10T09:44:08;96608.75;;;-0.59;82.73
56330;BME280;42236;48.058;10.632;2023-02-10T09:47:23;96613.91;;;-0.46;82.42
56330;BME280;42236;48.058;10.632;2023-02-10T09:50:15;96618.34;;;-0.40;81.97
56330;BME280;42236;48.058;10.632;2023-02-10T09:53:17;96616.03;;;-0.36;79.41
56330;BME280;42236;48.058;10.632;2023-02-10T09:56:11;96614.72;;;-0.27;79.40
56330;BME280;42236;48.058;10.632;2023-02-10T09:58:59;96625.16;;;-0.14;79.59
56330;BME280;42236;48.058;10.632;2023-02-10T10:01:49;96620.13;;;-0.04;80.08
56330;BME280;42236;48.058;10.632;2023-02-10T10:04:37;96616.72;;;0.08;80.45
56330;BME280;42236;48.058;10.632;2023-02-10T10:07:26;96623.91;;;0.19;78.96
56330;BME280;42236;48.058;10.632;2023-02-10T10:10:32;96625.22;;;0.28;77.68
56330;BME280;42236;48.058;10.632;2023-02-10T10:13:27;96622.47;;;0.35;77.94
56330;BME280;42236;48.058;10.632;2023-02-10T10:16:29;96621.56;;;0.41;76.93
56330;BME280;42236;48.058;10.632;2023-02-10T10:19:32;96618.00;;;0.47;76.94
56330;BME280;42236;48.058;10.632;2023-02-10T10:22:32;96618.94;;;0.53;77.51
56330;BME280;42236;48.058;10.632;2023-02-10T10:25:42;96609.50;;;0.57;75.44
56330;BME280;42236;48.058;10.632;2023-02-10T10:31:19;96602.72;;;0.73;77.10
56330;BME280;42236;48.058;10.632;2023-02-10T10:34:32;96595.66;;;0.78;75.04
56330;BME280;42236;48.058;10.632;2023-02-10T10:37:23;96605.34;;;0.84;75.79
56330;BME280;42236;48.058;10.632;2023-02-10T10:40:25;96595.09;;;0.88;75.59
56330;BME280;42236;48.058;10.632;2023-02-10T10:43:26;96594.16;;;0.94;74.56
56330;BME280;42236;48.058;10.632;2023-02-10T10:46:19;96589.91;;;1.05;75.20
56330;BME280;42236;48.058;10.632;2023-02-10T10:49:06;96585.28;;;1.12;75.09
56330;BME280;42236;48.058;10.632;2023-02-10T10:51:52;96572.09;;;1.17;75.16
56330;BME280;42236;48.058;10.632;2023-02-10T10:54:37;96567.13;;;1.21;75.31
56330;BME280;42236;48.058;10.632;2023-02-10T10:57:27;96575.22;;;1.26;73.48
56330;BME280;42236;48.058;10.632;2023-02-10T11:00:15;96560.41;;;1.30;73.79
56330;BME280;42236;48.058;10.632;2023-02-10T11:03:04;96564.44;;;1.33;74.31
56330;BME280;42236;48.058;10.632;2023-02-10T11:05:59;96560.28;;;1.37;72.26
56330;BME280;42236;48.058;10.632;2023-02-10T11:08:53;96563.75;;;1.37;72.12
56330;BME280;42236;48.058;10.632;2023-02-10T11:11:41;96557.25;;;1.45;72.97
56330;BME280;42236;48.058;10.632;2023-02-10T11:14:28;96551.00;;;1.51;73.26
56330;BME280;42236;48.058;10.632;2023-02-10T11:17:34;96543.13;;;1.56;72.94
56330;BME280;42236;48.058;10.632;2023-02-10T11:20:22;96541.84;;;1.59;71.95
56330;BME280;42236;48.058;10.632;2023-02-10T11:23:14;96552.47;;;1.59;71.40
56330;BME280;42236;48.058;10.632;2023-02-10T11:26:04;96543.78;;;1.63;72.85
56330;BME280;42236;48.058;10.632;2023-02-10T11:28:52;96537.53;;;1.69;73.00
56330;BME280;42236;48.058;10.632;2023-02-10T11:31:38;96539.25;;;1.76;72.99
56330;BME280;42236;48.058;10.632;2023-02-10T11:34:30;96535.28;;;1.78;71.62
56330;BME280;42236;48.058;10.632;2023-02-10T11:40:23;96542.22;;;1.91;70.87
56330;BME280;42236;48.058;10.632;2023-02-10T11:43:13;96544.97;;;1.96;72.29
56330;BME280;42236;48.058;10.632;2023-02-10T11:46:01;96536.00;;;2.02;71.85
56330;BME280;42236;48.058;10.632;2023-02-10T11:49:00;96533.78;;;2.11;70.76
56330;BME280;42236;48.058;10.632;2023-02-10T11:51:54;96527.25;;;2.19;70.59
56330;BME280;42236;48.058;10.632;2023-02-10T11:54:40;96528.63;;;2.21;70.85
56330;BME280;42236;48.058;10.632;2023-02-10T11:57:37;96517.47;;;2.24;71.89
56330;BME280;42236;48.058;10.632;2023-02-10T12:00:48;96520.47;;;2.28;71.30
56330;BME280;42236;48.058;10.632;2023-02-10T12:10:13;96513.00;;;2.42;70.17
56330;BME280;42236;48.058;10.632;2023-02-10T12:19:10;96503.78;;;2.49;68.67
56330;BME280;42236;48.058;10.632;2023-02-10T12:27:47;96500.22;;;2.61;69.08
56330;BME280;42236;48.058;10.632;2023-02-10T12:30:50;96499.41;;;2.60;65.88
56330;BME280;42236;48.058;10.632;2023-02-10T12:33:53;96497.38;;;2.67;65.49
56330;BME280;42236;48.058;10.632;2023-02-10T12:36:54;96493.25;;;2.76;67.95
56330;BME280;42236;48.058;10.632;2023-02-10T12:43:33;96483.22;;;2.84;66.20
56330;BME280;42236;48.058;10.632;2023-02-10T12:45:55;96487.25;;;2.86;66.91
56330;BME280;42236;48.058;10.632;2023-02-10T12:55:04;96491.31;;;3.11;66.75
56330;BME280;42236;48.058;10.632;2023-02-10T12:58:00;96493.50;;;3.14;66.39
56330;BME280;42236;48.058;10.632;2023-02-10T13:01:08;96497.28;;;3.18;65.03
56330;BME280;42236;48.058;10.632;2023-02-10T13:04:18;96489.28;;;3.18;65.77
56330;BME280;42236;48.058;10.632;2023-02-10T13:07:16;96489.00;;;3.14;65.89
56330;BME280;42236;48.058;10.632;2023-02-10T13:13:15;96481.28;;;3.18;63.33
56330;BME280;42236;48.058;10.632;2023-02-10T13:16:08;96486.69;;;3.23;64.92
56330;BME280;42236;48.058;10.632;2023-02-10T13:19:03;96477.66;;;3.24;64.18
56330;BME280;42236;48.058;10.632;2023-02-10T13:21:58;96475.50;;;3.26;64.80
56330;BME280;42236;48.058;10.632;2023-02-10T13:25:08;96484.34;;;3.27;63.18
56330;BME280;42236;48.058;10.632;2023-02-10T13:34:11;96482.03;;;3.35;62.58
56330;BME280;42236;48.058;10.632;2023-02-10T13:37:07;96480.47;;;3.39;64.21
56330;BME280;42236;48.058;10.632;2023-02-10T13:39:56;96477.25;;;3.37;63.31
56330;BME280;42236;48.058;10.632;2023-02-10T13:43:03;96478.88;;;3.38;62.76
56330;BME280;42236;48.058;10.632;2023-02-10T13:45:51;96483.22;;;3.45;64.28
56330;BME280;42236;48.058;10.632;2023-02-10T13:48:38;96473.09;;;3.47;63.91
56330;BME280;42236;48.058;10.632;2023-02-10T13:51:30;96476.56;;;3.47;61.11
56330;BME280;42236;48.058;10.632;2023-02-10T13:54:30;96472.59;;;3.50;62.19
56330;BME280;42236;48.058;10.632;2023-02-10T13:57:30;96474.22;;;3.51;62.55
56330;BME280;42236;48.058;10.632;2023-02-10T14:00:19;96481.16;;;3.52;63.23
56330;BME280;42236;48.058;10.632;2023-02-10T14:08:47;96474.00;;;3.57;63.05
56330;BME280;42236;48.058;10.632;2023-02-10T14:11:41;96472.16;;;3.58;62.22
56330;BME280;42236;48.058;10.632;2023-02-10T14:14:28;96477.19;;;3.54;62.35
56330;BME280;42236;48.058;10.632;2023-02-10T14:20:15;96479.09;;;3.59;61.52
56330;BME280;42236;48.058;10.632;2023-02-10T14:23:05;96483.94;;;3.62;63.08
56330;BME280;42236;48.058;10.632;2023-02-10T14:26:03;96480.69;;;3.60;61.83
56330;BME280;42236;48.058;10.632;2023-02-10T14:28:53;96479.66;;;3.61;62.47
56330;BME280;42236;48.058;10.632;2023-02-10T14:31:44;96477.50;;;3.58;61.99
56330;BME280;42236;48.058;10.632;2023-02-10T14:34:33;96483.13;;;3.61;63.35
56330;BME280;42236;48.058;10.632;2023-02-10T14:37:20;96472.16;;;3.58;62.89
56330;BME280;42236;48.058;10.632;2023-02-10T14:40:18;96472.66;;;3.55;62.49
56330;BME280;42236;48.058;10.632;2023-02-10T14:43:04;96473.47;;;3.55;62.83
56330;BME280;42236;48.058;10.632;2023-02-10T14:45:50;96469.97;;;3.55;62.46
56330;BME280;42236;48.058;10.632;2023-02-10T14:48:36;96470.81;;;3.55;62.51
56330;BME280;42236;48.058;10.632;2023-02-10T14:51:24;96466.81;;;3.58;62.85
56330;BME280;42236;48.058;10.632;2023-02-10T14:54:23;96469.44;;;3.53;62.73
56330;BME280;42236;48.058;10.632;2023-02-10T14:57:11;96460.03;;;3.50;62.02
56330;BME280;42236;48.058;10.632;2023-02-10T14:59:59;96465.72;;;3.54;62.50
56330;BME280;42236;48.058;10.632;2023-02-10T15:02:56;96467.00;;;3.51;62.60
56330;BME280;42236;48.058;10.632;2023-02-10T15:05:46;96471.22;;;3.47;61.69
56330;BME280;42236;48.058;10.632;2023-02-10T15:08:45;96475.25;;;3.50;62.62
56330;BME280;42236;48.058;10.632;2023-02-10T15:11:39;96473.09;;;3.47;62.55
56330;BME280;42236;48.058;10.632;2023-02-10T15:14:49;96477.88;;;3.45;62.62
56330;BME280;42236;48.058;10.632;2023-02-10T15:17:40;96473.03;;;3.41;61.88
56330;BME280;42236;48.058;10.632;2023-02-10T15:20:29;96486.38;;;3.41;62.77
56330;BME280;42236;48.058;10.632;2023-02-10T15:23:17;96493.03;;;3.39;62.96
56330;BME280;42236;48.058;10.632;2023-02-10T15:26:13;96492.22;;;3.38;63.45
56330;BME280;42236;48.058;10.632;2023-02-10T15:31:57;96483.59;;;3.31;63.31
56330;BME280;42236;48.058;10.632;2023-02-10T15:34:43;96490.47;;;3.27;64.16
56330;BME280;42236;48.058;10.632;2023-02-10T15:37:30;96496.53;;;3.23;64.55
56330;BME280;42236;48.058;10.632;2023-02-10T15:40:26;96490.34;;;3.17;64.40
56330;BME280;42236;48.058;10.632;2023-02-10T15:43:29;96489.47;;;3.11;63.62
56330;BME280;42236;48.058;10.632;2023-02-10T15:46:17;96495.28;;;3.08;65.15
56330;BME280;42236;48.058;10.632;2023-02-10T15:49:17;96488.03;;;3.04;65.28
56330;BME280;42236;48.058;10.632;2023-02-10T15:52:04;96496.53;;;3.01;65.71
56330;BME280;42236;48.058;10.632;2023-02-10T15:54:50;96496.47;;;2.95;65.77
56330;BME280;42236;48.058;10.632;2023-02-10T15:57:36;96489.69;;;2.88;65.88
56330;BME280;42236;48.058;10.632;2023-02-10T16:00:28;96497.28;;;2.79;66.06